Time;durP1;ratioP1;P1;durP2;ratioP2;P2;SDS_P1;SDS_P2;PMS_P1;PMS_P2;Temp;Humidity;BMP_temperature;BMP_pressure;BME280_temperature;BME280_humidity;BME280_pressure;Samples;Min_cycle;Max_cycle;Signal;HPM_P1;HPM_P2
2023/11/03 00:00:15;;;;;;;4.03;1.40;;;;;;;5.92;91.58;92804.41;6102695;23;20183;-82
2023/11/03 00:02:40;;;;;;;5.53;1.83;;;;;;;5.94;91.49;92804.22;6153902;23;20603;-81
2023/11/03 00:05:11;;;;;;;6.73;1.73;;;;;;;5.94;91.86;92801.63;6101546;23;20226;-83
2023/11/03 00:07:37;;;;;;;6.57;1.10;;;;;;;6.04;91.28;92802.09;6127946;23;20146;-82
2023/11/03 00:10:06;;;;;;;6.90;1.50;;;;;;;5.99;91.29;92801.84;6126818;23;20175;-82
2023/11/03 00:12:35;;;;;;;1.93;0.90;;;;;;;5.87;91.55;92798.97;6126851;23;20497;-81
2023/11/03 00:15:01;;;;;;;6.30;1.37;;;;;;;5.99;90.59;92793.31;6101462;23;20187;-81
2023/11/03 00:17:26;;;;;;;4.70;1.40;;;;;;;5.91;91.28;92791.69;6102204;23;20225;-82
2023/11/03 00:19:51;;;;;;;7.77;2.13;;;;;;;5.92;90.93;92791.53;6100585;23;20285;-80
2023/11/03 00:22:18;;;;;;;5.30;1.70;;;;;;;5.91;91.03;92791.69;6101710;23;20246;-82
2023/11/03 00:24:43;;;;;;;3.93;1.40;;;;;;;5.88;90.65;92790.25;6101676;23;20163;-81
2023/11/03 00:27:08;;;;;;;8.93;2.20;;;;;;;5.70;91.66;92802.78;6127222;23;20155;-82
2023/11/03 00:29:34;;;;;;;7.03;2.30;;;;;;;5.80;92.02;92795.53;6102087;23;20202;-81
2023/11/03 00:31:59;;;;;;;7.70;1.80;;;;;;;5.88;91.15;92792.81;6104033;23;20272;-83
2023/11/03 00:34:25;;;;;;;6.33;1.83;;;;;;;5.90;90.92;92790.06;6103553;23;20178;-83
2023/11/03 00:36:50;;;;;;;6.17;1.57;;;;;;;5.87;90.54;92796.38;6128725;23;20190;-83
2023/11/03 00:39:18;;;;;;;7.47;1.30;;;;;;;5.86;90.85;92797.38;6103782;23;20190;-82
2023/11/03 00:41:47;;;;;;;3.70;1.10;;;;;;;5.90;90.48;92795.22;6128019;23;20615;-82
2023/11/03 00:44:12;;;;;;;6.43;1.43;;;;;;;5.89;90.76;92796.19;6128779;23;20186;-83
2023/11/03 00:46:38;;;;;;;7.17;1.70;;;;;;;5.78;90.87;92802.66;6105016;23;20163;-82
2023/11/03 00:49:10;;;;;;;4.43;1.60;;;;;;;5.89;91.04;92803.91;6104984;23;20180;-81
2023/11/03 00:51:36;;;;;;;7.17;1.73;;;;;;;5.88;90.39;92807.47;6128915;23;20160;-82
2023/11/03 00:54:03;;;;;;;5.27;1.50;;;;;;;5.83;90.58;92805.47;6128264;23;20234;-82
2023/11/03 00:56:28;;;;;;;4.73;1.47;;;;;;;5.72;91.77;92811.09;6103108;23;20163;-82
2023/11/03 00:58:53;;;;;;;7.90;1.67;;;;;;;5.69;91.53;92808.91;6102828;23;20940;-81
2023/11/03 01:01:19;;;;;;;7.33;2.37;;;;;;;5.68;91.28;92809.91;6154075;23;20155;-81
2023/11/03 01:03:44;;;;;;;7.87;2.10;;;;;;;5.57;92.30;92805.25;6103468;23;20156;-82
2023/11/03 01:06:10;;;;;;;5.90;1.60;;;;;;;5.67;91.45;92800.59;6102489;23;20163;-82
2023/11/03 01:08:36;;;;;;;5.43;1.63;;;;;;;5.67;91.04;92793.66;6127950;23;20254;-81
2023/11/03 01:11:02;;;;;;;4.60;1.40;;;;;;;5.67;91.15;92792.84;6127959;23;20267;-82
2023/11/03 01:13:28;;;;;;;5.83;1.47;;;;;;;5.64;90.86;92788.84;6127426;23;20163;-80
2023/11/03 01:15:53;;;;;;;3.03;1.43;;;;;;;5.60;91.23;92792.00;6102521;23;20173;-81
2023/11/03 01:18:19;;;;;;;6.53;1.10;;;;;;;5.70;90.93;92789.91;6103330;23;20159;-82
2023/11/03 01:20:48;;;;;;;5.93;1.53;;;;;;;5.64;90.25;92800.94;6102126;23;20552;-81
2023/11/03 01:23:17;;;;;;;6.27;1.60;;;;;;;5.60;90.02;92789.44;6104047;23;20163;-81
2023/11/03 01:25:45;;;;;;;5.47;1.87;;;;;;;5.72;90.00;92802.59;6126977;23;20152;-81
2023/11/03 01:28:12;;;;;;;4.47;1.40;;;;;;;5.58;89.75;92810.22;6127734;23;20163;-81
2023/11/03 01:30:39;;;;;;;8.27;1.50;;;;;;;5.88;88.70;92808.28;6128469;23;20240;-83
2023/11/03 01:33:05;;;;;;;6.43;1.97;;;;;;;5.72;88.46;92823.97;6127946;23;20580;-80
2023/11/03 01:35:31;;;;;;;5.27;2.03;;;;;;;5.86;87.98;92825.69;6126909;23;20278;-82
2023/11/03 01:37:56;;;;;;;9.50;2.40;;;;;;;5.75;88.44;92836.50;6103004;23;20190;-81
2023/11/03 01:40:22;;;;;;;4.83;1.57;;;;;;;5.80;87.62;92843.66;6127942;23;20175;-82
2023/11/03 01:42:48;;;;;;;9.07;2.13;;;;;;;5.88;86.73;92846.13;6103271;23;20922;-82
2023/11/03 01:45:14;;;;;;;5.10;1.53;;;;;;;5.99;86.64;92840.50;6102577;23;20178;-82
2023/11/03 01:47:40;;;;;;;9.13;2.23;;;;;;;5.96;86.68;92839.09;6127610;23;20159;-81
2023/11/03 01:50:06;;;;;;;3.97;1.47;;;;;;;5.94;86.84;92827.38;6127679;23;20241;-81
2023/11/03 01:52:34;;;;;;;3.97;1.30;;;;;;;6.03;87.01;92825.47;6127694;23;20564;-82
2023/11/03 01:55:00;;;;;;;3.40;1.03;;;;;;;5.88;87.45;92828.09;6126066;23;20167;-81
2023/11/03 01:57:25;;;;;;;5.73;1.30;;;;;;;5.92;87.22;92825.00;6131872;23;20190;-82
2023/11/03 01:59:52;;;;;;;5.00;1.97;;;;;;;5.88;87.88;92828.88;6131448;23;20174;-82
2023/11/03 02:02:18;;;;;;;4.40;1.40;;;;;;;5.88;87.42;92818.59;6157002;23;20225;-81
2023/11/03 02:04:43;;;;;;;6.10;1.57;;;;;;;5.90;86.99;92823.53;6155396;23;20170;-82
2023/11/03 02:07:09;;;;;;;8.13;1.33;;;;;;;5.95;87.07;92821.25;6156680;23;20227;-80
2023/11/03 02:09:34;;;;;;;4.33;1.20;;;;;;;5.89;87.20;92822.75;6131690;23;20188;-82
2023/11/03 02:12:00;;;;;;;6.70;1.40;;;;;;;5.85;87.23;92813.81;6155650;23;20164;-82
2023/11/03 02:14:25;;;;;;;4.97;1.27;;;;;;;5.74;87.53;92824.59;6129377;23;20192;-81
2023/11/03 02:16:51;;;;;;;5.97;1.30;;;;;;;5.77;87.42;92811.38;6139602;23;20155;-82
2023/11/03 02:19:16;;;;;;;2.27;1.20;;;;;;;5.82;87.40;92811.59;6131932;23;20182;-82
2023/11/03 02:21:42;;;;;;;3.97;1.20;;;;;;;5.86;86.84;92809.47;6131767;23;20274;-83
2023/11/03 02:24:08;;;;;;;4.40;1.20;;;;;;;5.73;87.40;92820.41;6132117;23;20155;-83
2023/11/03 02:26:34;;;;;;;2.90;1.13;;;;;;;5.82;86.56;92821.09;6106708;23;20630;-83
2023/11/03 02:29:00;;;;;;;4.33;1.20;;;;;;;5.74;86.33;92813.50;6106862;23;20277;-82
2023/11/03 02:31:26;;;;;;;3.83;1.00;;;;;;;5.68;86.63;92817.63;6107013;23;20646;-83
2023/11/03 02:33:51;;;;;;;1.40;0.83;;;;;;;5.54;87.05;92821.03;6130784;23;20225;-82
2023/11/03 02:36:18;;;;;;;5.03;1.30;;;;;;;5.54;87.05;92805.59;6130972;23;20220;-83
2023/11/03 02:38:43;;;;;;;4.90;1.57;;;;;;;5.60;86.81;92804.88;6131256;23;20196;-81
2023/11/03 02:41:09;;;;;;;4.30;1.13;;;;;;;5.59;86.91;92811.00;6106078;23;20254;-82
2023/11/03 02:43:34;;;;;;;1.47;1.07;;;;;;;5.58;86.36;92801.69;6106300;23;20194;-83
2023/11/03 02:45:59;;;;;;;4.93;1.50;;;;;;;5.54;86.48;92796.09;6106455;23;20309;-81
2023/11/03 02:48:25;;;;;;;6.13;1.50;;;;;;;5.48;87.07;92803.75;6131228;23;20159;-83
2023/11/03 02:50:50;;;;;;;2.80;1.00;;;;;;;5.52;87.01;92799.84;6130570;23;20155;-82
2023/11/03 02:53:15;;;;;;;2.70;1.10;;;;;;;5.45;87.31;92797.19;6105325;23;20158;-81
2023/11/03 02:55:41;;;;;;;2.40;1.00;;;;;;;5.44;86.70;92802.53;6130235;23;20252;-83
2023/11/03 02:58:07;;;;;;;2.50;1.00;;;;;;;5.40;87.01;92802.91;6105694;23;20163;-82
2023/11/03 03:00:34;;;;;;;3.13;0.90;;;;;;;5.36;87.03;92803.44;6130533;23;20219;-83
2023/11/03 03:02:59;;;;;;;3.77;1.27;;;;;;;5.28;87.76;92800.97;6106097;23;20167;-83
2023/11/03 03:05:25;;;;;;;3.13;1.13;;;;;;;5.21;87.88;92800.09;6129687;23;20851;-83
2023/11/03 03:07:50;;;;;;;2.67;1.20;;;;;;;5.22;87.81;92802.53;6156355;23;20160;-83
2023/11/03 03:10:15;;;;;;;5.90;1.10;;;;;;;5.28;87.64;92800.97;6105311;23;20569;-83
2023/11/03 03:12:41;;;;;;;3.87;1.87;;;;;;;5.28;87.52;92799.22;6130680;23;20243;-83
2023/11/03 03:15:10;;;;;;;4.20;0.93;;;;;;;5.33;87.39;92809.75;6104940;23;20210;-83
2023/11/03 03:17:36;;;;;;;3.40;1.10;;;;;;;5.36;87.17;92800.88;6129952;23;20554;-82
2023/11/03 03:20:01;;;;;;;5.30;1.27;;;;;;;5.41;87.25;92803.72;6104050;23;20179;-83
2023/11/03 03:22:26;;;;;;;5.50;1.50;;;;;;;5.46;86.85;92803.13;6130089;23;20155;-83
2023/11/03 03:24:52;;;;;;;3.90;0.97;;;;;;;5.45;86.41;92804.13;6104915;23;20504;-83
2023/11/03 03:27:17;;;;;;;3.40;1.47;;;;;;;5.54;85.89;92803.81;6105425;23;20158;-83
2023/11/03 03:29:42;;;;;;;4.50;1.13;;;;;;;5.58;85.78;92812.00;6105850;23;20638;-82
2023/11/03 03:32:08;;;;;;;5.30;1.47;;;;;;;5.69;85.13;92824.34;6105892;23;20160;-83
2023/11/03 03:34:34;;;;;;;4.90;1.10;;;;;;;5.75;84.89;92828.00;6129892;23;20175;-83
2023/11/03 03:36:59;;;;;;;3.73;0.87;;;;;;;5.86;84.03;92815.41;6154855;23;20155;-82
2023/11/03 03:39:25;;;;;;;8.17;1.83;;;;;;;5.95;83.92;92816.09;6129466;23;20172;-83
2023/11/03 03:41:53;;;;;;;5.93;1.37;;;;;;;6.02;83.37;92816.16;6105568;23;20646;-83
2023/11/03 03:44:19;;;;;;;4.10;1.40;;;;;;;6.07;83.24;92809.44;6105508;23;20186;-82
2023/11/03 03:46:44;;;;;;;6.87;1.40;;;;;;;6.13;82.87;92811.28;6156356;23;20159;-81
2023/11/03 03:49:09;;;;;;;4.10;1.03;;;;;;;6.14;82.82;92809.50;6129308;23;20174;-81
2023/11/03 03:51:35;;;;;;;7.57;1.67;;;;;;;6.12;82.85;92812.28;6104992;23;20159;-83
2023/11/03 03:54:00;;;;;;;4.93;1.27;;;;;;;6.13;82.68;92813.84;6105076;23;20242;-81
2023/11/03 03:56:26;;;;;;;12.50;1.50;;;;;;;6.23;81.94;92821.25;6104169;23;20155;-83
2023/11/03 03:58:52;;;;;;;7.50;1.40;;;;;;;6.25;82.16;92809.78;6129267;23;20618;-81
2023/11/03 04:01:18;;;;;;;7.77;1.40;;;;;;;6.30;80.94;92811.81;6104409;23;20166;-82
2023/11/03 04:03:44;;;;;;;4.47;1.30;;;;;;;6.36;81.25;92799.91;6128884;23;20159;-83
2023/11/03 04:06:10;;;;;;;6.23;1.40;;;;;;;6.40;81.46;92796.00;6130328;23;20489;-82
2023/11/03 04:08:36;;;;;;;4.43;1.60;;;;;;;6.42;81.44;92794.03;6107021;23;20187;-81
2023/11/03 04:11:01;;;;;;;7.57;1.60;;;;;;;6.43;81.81;92798.19;6106499;23;20166;-82
2023/11/03 04:13:26;;;;;;;9.20;2.20;;;;;;;6.44;81.68;92797.19;6105854;23;20185;-83
2023/11/03 04:15:52;;;;;;;10.17;1.60;;;;;;;6.37;82.52;92809.28;6106414;23;20171;-83
2023/11/03 04:18:17;;;;;;;8.13;1.20;;;;;;;6.38;82.48;92813.44;6131101;23;20159;-83
2023/11/03 04:20:43;;;;;;;5.17;1.20;;;;;;;6.17;83.18;92822.00;6105270;23;20163;-81
2023/11/03 04:23:08;;;;;;;3.60;1.03;;;;;;;6.34;82.64;92830.25;6106355;23;20262;-82
2023/11/03 04:25:33;;;;;;;5.20;1.30;;;;;;;6.44;82.48;92841.81;6105785;23;20162;-81
2023/11/03 04:27:59;;;;;;;3.00;0.90;;;;;;;6.36;83.33;92861.78;6106222;23;20164;-83
2023/11/03 04:30:24;;;;;;;2.63;0.80;;;;;;;6.35;83.44;92866.13;6130128;23;20778;-83
2023/11/03 04:32:49;;;;;;;4.13;1.77;;;;;;;6.03;84.92;92862.34;6130947;23;20159;-81
2023/11/03 04:35:15;;;;;;;6.03;1.27;;;;;;;6.07;84.96;92853.25;6129576;23;20171;-82
2023/11/03 04:37:40;;;;;;;5.03;1.07;;;;;;;6.06;84.10;92853.44;6105925;23;20162;-81
2023/11/03 04:40:06;;;;;;;4.97;1.37;;;;;;;6.11;84.61;92843.38;6105591;23;20670;-79
2023/11/03 04:42:31;;;;;;;3.20;1.30;;;;;;;6.16;84.65;92835.88;6129694;23;20159;-80
2023/11/03 04:44:57;;;;;;;1.50;1.10;;;;;;;6.04;85.23;92833.00;6129460;23;20254;-83
2023/11/03 04:47:22;;;;;;;1.93;1.17;;;;;;;6.01;85.61;92827.41;6106084;23;20159;-82
2023/11/03 04:49:48;;;;;;;5.10;1.10;;;;;;;6.05;85.55;92828.66;6129963;23;20171;-84
2023/11/03 04:52:13;;;;;;;4.90;1.30;;;;;;;6.03;86.45;92828.06;6105794;23;20604;-84
2023/11/03 04:54:38;;;;;;;4.23;1.10;;;;;;;5.88;86.63;92828.88;6104426;23;20183;-83
2023/11/03 04:57:05;;;;;;;4.67;1.20;;;;;;;6.01;86.35;92842.88;6130345;23;20169;-81
2023/11/03 04:59:30;;;;;;;6.30;0.97;;;;;;;5.94;86.36;92838.47;6129649;23;20261;-81
2023/11/03 05:01:56;;;;;;;4.33;1.27;;;;;;;6.00;85.80;92833.56;6130510;23;20708;-82
2023/11/03 05:04:22;;;;;;;3.93;1.20;;;;;;;6.13;84.69;92833.69;6129684;23;20151;-83
2023/11/03 05:06:47;;;;;;;5.20;1.30;;;;;;;6.18;84.96;92831.31;6105480;23;20163;-82
2023/11/03 05:09:13;;;;;;;2.80;0.90;;;;;;;6.06;84.91;92837.97;6105101;23;20183;-82
2023/11/03 05:11:38;;;;;;;4.27;1.37;;;;;;;6.09;84.39;92845.31;6105804;23;20160;-81
2023/11/03 05:14:05;;;;;;;5.17;1.17;;;;;;;6.22;84.28;92848.00;6129783;23;20520;-82
2023/11/03 05:16:31;;;;;;;7.13;1.30;;;;;;;6.30;84.10;92853.03;6155164;23;20175;-82
2023/11/03 05:18:56;;;;;;;4.73;1.20;;;;;;;6.32;84.31;92861.38;6105242;23;20182;-82
2023/11/03 05:21:24;;;;;;;4.30;1.17;;;;;;;6.34;84.38;92861.19;6128599;23;20159;-81
2023/11/03 05:23:50;;;;;;;7.63;1.20;;;;;;;6.34;84.45;92851.66;6105978;23;20158;-82
2023/11/03 05:26:16;;;;;;;4.13;1.20;;;;;;;6.20;83.84;92853.38;6104747;23;20155;-81
2023/11/03 05:28:41;;;;;;;4.20;1.23;;;;;;;6.28;84.00;92861.94;6105319;23;20195;-83
2023/11/03 05:31:06;;;;;;;2.77;1.03;;;;;;;6.28;83.86;92867.91;6129344;23;20497;-82
2023/11/03 05:33:32;;;;;;;6.73;1.40;;;;;;;6.22;84.02;92863.47;6104334;23;20495;-82
2023/11/03 05:35:57;;;;;;;5.97;1.40;;;;;;;6.32;83.05;92856.22;6104326;23;20168;-81
2023/11/03 05:38:23;;;;;;;4.60;1.47;;;;;;;6.39;83.18;92856.28;6129929;23;20466;-80
2023/11/03 05:40:48;;;;;;;3.93;0.97;;;;;;;6.42;83.18;92858.47;6129369;23;20502;-83
2023/11/03 05:43:14;;;;;;;6.47;1.27;;;;;;;6.36;83.43;92861.78;6104722;23;20173;-81
2023/11/03 05:45:39;;;;;;;5.63;1.33;;;;;;;6.32;83.67;92863.94;6128390;23;20152;-82
2023/11/03 05:48:05;;;;;;;3.87;1.20;;;;;;;6.37;84.07;92864.19;6155398;23;20151;-83
2023/11/03 05:50:30;;;;;;;3.93;1.43;;;;;;;6.38;83.76;92865.78;6128961;23;20198;-83
2023/11/03 05:52:55;;;;;;;7.83;1.77;;;;;;;6.40;83.38;92873.31;6104798;23;20607;-83
2023/11/03 05:55:21;;;;;;;3.93;1.27;;;;;;;6.37;83.32;92864.19;6128752;23;20283;-82
2023/11/03 05:57:46;;;;;;;6.50;1.43;;;;;;;6.33;82.89;92869.91;6128643;23;20623;-82
2023/11/03 06:00:13;;;;;;;4.37;1.33;;;;;;;6.46;82.84;92873.38;6155383;23;20171;-83
2023/11/03 06:02:38;;;;;;;2.40;1.13;;;;;;;6.51;82.66;92872.81;6129102;23;20163;-82
2023/11/03 06:05:05;;;;;;;6.43;1.83;;;;;;;6.52;82.62;92877.75;6128132;23;20162;-81
2023/11/03 06:07:32;;;;;;;27.60;15.93;;;;;;;6.49;82.61;92890.25;6104452;23;20486;-82
2023/11/03 06:09:57;;;;;;;8.87;4.90;;;;;;;6.46;83.47;92885.47;6104061;23;20214;-81
2023/11/03 06:12:22;;;;;;;5.43;2.23;;;;;;;6.50;82.73;92889.25;6128937;23;20156;-82
2023/11/03 06:14:48;;;;;;;2.93;1.10;;;;;;;6.52;83.13;92897.59;6128198;23;20171;-82
2023/11/03 06:17:13;;;;;;;5.83;1.83;;;;;;;6.42;82.75;92897.94;6104574;23;20932;-82
2023/11/03 06:19:38;;;;;;;3.97;1.33;;;;;;;6.43;82.47;92899.50;6127045;23;20659;-83
2023/11/03 06:22:04;;;;;;;7.50;1.43;;;;;;;6.48;82.40;92906.72;6107579;23;20611;-83
2023/11/03 06:24:29;;;;;;;9.13;1.90;;;;;;;6.43;82.43;92914.97;6127866;23;20487;-82
2023/11/03 06:26:59;;;;;;;5.23;1.20;;;;;;;6.62;82.30;92912.75;6104000;23;20159;-81
2023/11/03 06:29:25;;;;;;;3.77;1.40;;;;;;;6.65;82.12;92914.97;6129505;23;20187;-81
2023/11/03 06:31:51;;;;;;;2.20;1.57;;;;;;;6.59;82.01;92913.13;6128764;23;20327;-82
2023/11/03 06:34:16;;;;;;;4.30;1.30;;;;;;;6.63;81.99;92919.53;6105204;23;20233;-82
2023/11/03 06:36:41;;;;;;;5.20;1.20;;;;;;;6.55;82.38;92919.66;6104877;23;20533;-81
2023/11/03 06:39:06;;;;;;;2.97;1.07;;;;;;;6.53;82.46;92938.66;6129318;23;20175;-82
2023/11/03 06:41:32;;;;;;;5.17;1.27;;;;;;;6.24;82.69;92937.03;6155166;23;20175;-82
2023/11/03 06:43:57;;;;;;;3.57;1.07;;;;;;;6.40;82.86;92946.28;6104296;23;20507;-83
2023/11/03 06:46:22;;;;;;;3.20;1.00;;;;;;;6.36;82.38;92949.41;6154402;23;20190;-83
2023/11/03 06:48:50;;;;;;;3.07;1.30;;;;;;;6.44;82.78;92954.44;6103772;23;20654;-83
2023/11/03 06:51:16;;;;;;;4.20;1.43;;;;;;;6.46;82.70;92961.03;6104299;23;20163;-82
2023/11/03 06:53:43;;;;;;;3.30;0.90;;;;;;;6.59;82.91;92962.13;6104208;23;20167;-82
2023/11/03 06:56:08;;;;;;;4.60;1.27;;;;;;;6.69;83.22;92962.59;6126687;23;20202;-83
2023/11/03 06:58:34;;;;;;;5.60;1.33;;;;;;;6.79;82.58;92957.91;6103048;23;20210;-81
2023/11/03 07:01:00;;;;;;;7.93;1.10;;;;;;;6.76;83.06;92971.19;6103367;23;20186;-80
2023/11/03 07:03:25;;;;;;;4.27;1.20;;;;;;;6.69;84.03;92972.91;6103143;23;20218;-83
2023/11/03 07:05:51;;;;;;;2.43;0.90;;;;;;;6.68;84.22;92976.47;6127260;23;20147;-82
2023/11/03 07:08:16;;;;;;;3.83;1.27;;;;;;;6.56;85.38;92983.91;6103004;23;20162;-82
2023/11/03 07:10:44;;;;;;;4.23;1.10;;;;;;;6.50;85.66;92988.03;6103024;23;20159;-81
2023/11/03 07:13:11;;;;;;;4.20;1.20;;;;;;;6.51;85.89;92992.19;6126629;23;20159;-81
2023/11/03 07:15:36;;;;;;;3.07;0.97;;;;;;;6.43;86.08;92984.59;6126688;23;20194;-81
2023/11/03 07:18:02;;;;;;;1.93;1.00;;;;;;;6.58;86.58;92994.03;6102500;23;20151;-81
2023/11/03 07:20:29;;;;;;;4.80;1.00;;;;;;;6.55;85.96;92994.44;6151431;23;20202;-81
2023/11/03 07:22:55;;;;;;;3.30;1.20;;;;;;;6.57;86.20;92997.59;6102764;23;20242;-81
2023/11/03 07:25:20;;;;;;;3.77;1.33;;;;;;;6.32;87.26;93004.91;6102910;23;20198;-80
2023/11/03 07:27:47;;;;;;;4.43;1.00;;;;;;;6.38;87.23;92997.25;6153784;23;20155;-82
2023/11/03 07:30:12;;;;;;;4.47;1.83;;;;;;;6.58;86.75;92994.03;6127904;23;20191;-82
2023/11/03 07:32:40;;;;;;;3.33;0.80;;;;;;;6.45;88.00;92998.13;6151469;23;20290;-82
2023/11/03 07:35:06;;;;;;;6.43;1.30;;;;;;;6.51;87.74;92999.94;6126544;23;20266;-82
2023/11/03 07:37:31;;;;;;;4.20;1.13;;;;;;;6.52;87.39;93000.72;6127220;23;20167;-82
2023/11/03 07:39:57;;;;;;;3.93;1.10;;;;;;;6.51;87.73;93007.66;6128237;23;20178;-81
2023/11/03 07:42:22;;;;;;;2.90;1.17;;;;;;;6.79;87.42;93014.66;6129949;23;20178;-81
2023/11/03 07:44:48;;;;;;;4.60;2.00;;;;;;;6.89;86.69;93006.59;6129587;23;20772;-81
2023/11/03 07:47:13;;;;;;;6.23;2.37;;;;;;;6.78;87.47;93013.06;6129770;23;20507;-81
2023/11/03 07:49:38;;;;;;;4.90;1.70;;;;;;;6.66;88.10;93011.97;6130121;23;20222;-81
2023/11/03 07:52:04;;;;;;;1.53;1.10;;;;;;;6.84;87.67;93014.09;6105342;23;20219;-81
2023/11/03 07:54:29;;;;;;;1.33;1.23;;;;;;;6.94;86.78;93015.38;6103114;23;20187;-81
2023/11/03 07:56:56;;;;;;;5.33;1.73;;;;;;;7.07;87.03;93007.75;6105298;23;20266;-81
2023/11/03 07:59:21;;;;;;;3.53;1.20;;;;;;;7.11;86.08;93013.31;6105801;23;20183;-81
2023/11/03 08:01:47;;;;;;;5.10;1.40;;;;;;;7.13;86.57;93007.94;6105364;23;20155;-80
2023/11/03 08:04:16;;;;;;;3.73;1.30;;;;;;;6.91;87.04;93013.16;6129289;23;20156;-80
2023/11/03 08:06:46;;;;;;;1.90;0.80;;;;;;;6.86;87.38;93018.06;6137278;23;20178;-77
2023/11/03 08:09:12;;;;;;;5.30;1.27;;;;;;;7.13;86.20;93013.13;6130929;23;20186;-77
2023/11/03 08:11:37;;;;;;;4.87;1.70;;;;;;;7.05;85.98;93020.00;6119933;23;20226;-79
2023/11/03 08:14:02;;;;;;;3.13;1.27;;;;;;;7.40;85.14;93025.19;6140486;23;20186;-80
2023/11/03 08:16:28;;;;;;;4.83;2.13;;;;;;;7.22;85.17;93019.72;6135994;23;20514;-80
2023/11/03 08:18:57;;;;;;;15.27;7.33;;;;;;;7.16;85.49;93020.50;6108619;23;20186;-80
2023/11/03 08:21:23;;;;;;;14.87;6.57;;;;;;;7.50;84.86;93023.06;6107846;23;20159;-81
2023/11/03 08:23:49;;;;;;;6.30;3.27;;;;;;;7.42;83.89;93012.91;6131033;23;20166;-81
2023/11/03 08:26:16;;;;;;;3.73;1.93;;;;;;;7.46;84.17;93019.28;6106989;23;20159;-82
2023/11/03 08:28:43;;;;;;;3.63;2.80;;;;;;;7.49;83.66;93013.72;6107278;23;20183;-82
2023/11/03 08:31:09;;;;;;;7.57;3.70;;;;;;;7.59;83.03;93011.59;6106429;23;20178;-81
2023/11/03 08:33:34;;;;;;;4.50;3.23;;;;;;;7.43;83.51;93018.88;6131972;23;20226;-81
2023/11/03 08:36:00;;;;;;;5.53;2.93;;;;;;;7.53;82.72;93009.78;6106336;23;20643;-82
2023/11/03 08:38:25;;;;;;;3.70;2.70;;;;;;;7.65;81.62;93016.00;6105845;23;20484;-82
2023/11/03 08:40:53;;;;;;;6.67;1.80;;;;;;;7.78;81.71;93017.06;6132558;23;20195;-82
2023/11/03 08:43:21;;;;;;;2.10;1.60;;;;;;;7.93;81.29;93015.13;6131739;23;20163;-82
2023/11/03 08:45:46;;;;;;;0.80;0.70;;;;;;;7.55;81.66;93017.34;6107977;23;20155;-83
2023/11/03 08:48:12;;;;;;;3.10;0.83;;;;;;;7.52;80.54;93021.13;6132608;23;20491;-82
2023/11/03 08:50:37;;;;;;;3.00;1.00;;;;;;;7.67;81.17;93018.41;6105842;23;20179;-82
2023/11/03 08:53:03;;;;;;;2.70;1.23;;;;;;;7.89;80.24;93027.66;6105045;23;20158;-83
2023/11/03 08:55:28;;;;;;;0.93;0.70;;;;;;;7.34;79.92;93029.34;6129627;23;20179;-83
2023/11/03 08:57:56;;;;;;;3.43;0.90;;;;;;;7.58;80.16;93035.84;6130787;23;20482;-82
2023/11/03 09:00:22;;;;;;;1.33;0.80;;;;;;;7.83;79.45;93040.53;6106310;23;20179;-82
2023/11/03 09:02:48;;;;;;;0.97;0.70;;;;;;;7.63;79.94;93041.25;6129920;23;20155;-82
2023/11/03 09:05:14;;;;;;;2.50;1.10;;;;;;;8.07;78.77;93045.22;6110764;23;20161;-78
2023/11/03 09:07:41;;;;;;;1.10;1.00;;;;;;;7.93;79.27;93052.09;6113469;23;20165;-78
2023/11/03 09:10:07;;;;;;;3.63;1.20;;;;;;;7.99;78.92;93050.56;6137100;23;20241;-79
2023/11/03 09:12:34;;;;;;;1.57;1.00;;;;;;;7.67;78.74;93049.38;6135874;23;20170;-80
2023/11/03 09:15:00;;;;;;;2.30;1.00;;;;;;;7.79;79.05;93065.19;6111162;23;20176;-80
2023/11/03 09:17:27;;;;;;;0.80;0.63;;;;;;;7.62;78.48;93065.47;6134154;23;20205;-78
2023/11/03 09:19:53;;;;;;;3.27;1.60;;;;;;;7.97;77.85;93067.25;6105326;23;20180;-82
2023/11/03 09:22:18;;;;;;;1.23;0.80;;;;;;;7.84;77.26;93071.34;6104255;23;20527;-81
2023/11/03 09:24:43;;;;;;;1.60;0.70;;;;;;;8.08;77.63;93075.25;6103354;23;20159;-82
2023/11/03 09:27:09;;;;;;;1.67;0.73;;;;;;;7.93;78.45;93071.97;6128703;23;20234;-80
2023/11/03 09:29:34;;;;;;;1.50;1.00;;;;;;;8.10;77.41;93081.00;6113324;23;20207;-82
2023/11/03 09:32:00;;;;;;;2.10;1.60;;;;;;;8.21;77.01;93079.66;6130950;23;20590;-81
2023/11/03 09:34:25;;;;;;;2.77;1.30;;;;;;;8.29;76.26;93084.66;6129914;23;20189;-81
2023/11/03 09:36:51;;;;;;;4.73;2.80;;;;;;;8.10;77.35;93085.38;6129346;23;20175;-82
2023/11/03 09:39:22;;;;;;;5.20;2.93;;;;;;;8.51;76.83;93081.00;6104314;23;20321;-86
2023/11/03 09:41:59;;;;;;;3.63;2.27;;;;;;;8.57;77.04;93079.44;6139021;23;20174;-81
2023/11/03 09:44:25;;;;;;;10.20;4.40;;;;;;;8.32;76.97;93076.53;6109663;23;20154;-81
2023/11/03 09:46:53;;;;;;;3.87;2.57;;;;;;;8.60;76.61;93080.81;6105368;23;20155;-83
2023/11/03 09:49:18;;;;;;;3.93;2.53;;;;;;;8.47;75.66;93078.97;6105454;23;20179;-83
2023/11/03 09:51:47;;;;;;;4.23;2.80;;;;;;;8.76;75.52;93073.50;6129003;23;20183;-82
2023/11/03 09:54:12;;;;;;;3.10;1.90;;;;;;;8.34;75.85;93071.16;6104374;23;20202;-82
2023/11/03 09:56:39;;;;;;;1.83;0.90;;;;;;;8.53;75.90;93075.63;6103735;23;20163;-83
2023/11/03 09:59:07;;;;;;;3.43;1.90;;;;;;;8.61;74.91;93065.09;6104745;23;20183;-81
2023/11/03 10:01:32;;;;;;;3.13;1.10;;;;;;;8.49;75.24;93064.09;6127705;23;20597;-82
2023/11/03 10:03:58;;;;;;;6.63;4.80;;;;;;;8.86;74.99;93062.75;6128362;23;20152;-82
2023/11/03 10:06:23;;;;;;;2.30;1.57;;;;;;;8.73;74.15;93060.94;6127854;23;20175;-80
2023/11/03 10:08:51;;;;;;;2.60;1.50;;;;;;;8.74;73.87;93066.91;6128053;23;20578;-82
2023/11/03 10:11:17;;;;;;;6.40;3.50;;;;;;;9.00;73.71;93063.56;6104382;23;20159;-82
2023/11/03 10:13:42;;;;;;;2.13;1.57;;;;;;;9.11;73.82;93068.16;6103634;23;20233;-83
2023/11/03 10:16:07;;;;;;;1.50;1.40;;;;;;;9.11;73.64;93069.94;6127535;23;20509;-82
2023/11/03 10:18:36;;;;;;;1.50;1.40;;;;;;;9.40;73.04;93064.34;6103622;23;20860;-81
2023/11/03 10:21:02;;;;;;;1.20;1.03;;;;;;;9.45;72.76;93069.72;6128233;23;20155;-83
2023/11/03 10:23:28;;;;;;;2.83;1.00;;;;;;;9.74;72.51;93067.72;6128166;23;20600;-83
2023/11/03 10:25:53;;;;;;;13.20;6.77;;;;;;;9.59;71.34;93058.34;6127131;23;20242;-82
2023/11/03 10:28:21;;;;;;;2.43;2.03;;;;;;;9.57;70.77;93060.34;6127817;23;20163;-82
2023/11/03 10:30:55;;;;;;;2.20;1.30;;;;;;;9.52;71.04;93052.38;6103744;23;20167;-82
2023/11/03 10:33:22;;;;;;;4.13;2.70;;;;;;;9.68;71.24;93052.97;6103550;23;20506;-81
2023/11/03 10:35:49;;;;;;;4.23;2.40;;;;;;;9.65;70.36;93059.34;6103231;23;20176;-81
2023/11/03 10:38:14;;;;;;;2.67;2.47;;;;;;;9.45;70.82;93061.16;6128089;23;20604;-81
2023/11/03 10:40:42;;;;;;;1.73;1.20;;;;;;;9.55;70.33;93049.41;6127756;23;20175;-81
2023/11/03 10:43:08;;;;;;;2.37;1.80;;;;;;;9.44;70.52;93041.44;6127782;23;20201;-83
2023/11/03 10:45:36;;;;;;;6.10;1.83;;;;;;;9.22;70.65;93048.63;6102149;23;20860;-82
2023/11/03 10:48:11;;;;;;;2.77;1.60;;;;;;;9.76;69.90;93043.16;6103250;23;20156;-82
2023/11/03 10:50:41;;;;;;;2.83;1.60;;;;;;;9.48;70.25;93047.81;6103359;23;20175;-82
2023/11/03 10:53:27;;;;;;;3.20;1.57;;;;;;;9.60;70.03;93046.19;6128071;23;20144;-81
2023/11/03 10:55:56;;;;;;;2.93;1.60;;;;;;;9.50;70.51;93038.03;6126882;23;20269;-81
2023/11/03 10:58:22;;;;;;;3.97;1.53;;;;;;;9.21;71.07;93040.06;6127272;23;20162;-80
2023/11/03 11:01:06;;;;;;;1.97;1.20;;;;;;;8.95;71.14;93037.47;6125940;23;20163;-82
2023/11/03 11:04:02;;;;;;;1.70;1.07;;;;;;;9.63;68.81;93031.06;6102874;23;20151;-82
2023/11/03 11:06:30;;;;;;;1.00;0.60;;;;;;;9.40;70.02;93038.47;6093213;23;20559;-82
2023/11/03 11:09:09;;;;;;;1.00;0.70;;;;;;;9.20;70.60;93037.69;6102735;23;20210;-82
2023/11/03 11:11:36;;;;;;;1.70;0.70;;;;;;;9.14;70.23;93041.06;6127264;23;20159;-80
2023/11/03 11:14:22;;;;;;;1.20;0.70;;;;;;;9.39;70.46;93046.44;6102065;23;20187;-81
2023/11/03 11:16:54;;;;;;;0.87;0.80;;;;;;;9.07;70.81;93041.84;6126237;23;20823;-80
2023/11/03 11:19:28;;;;;;;2.57;1.10;;;;;;;9.38;69.84;93048.22;6126639;23;20242;-81
2023/11/03 11:21:57;;;;;;;2.80;1.20;;;;;;;9.34;70.63;93044.44;6126784;23;20139;-81
2023/11/03 11:24:23;;;;;;;2.07;0.60;;;;;;;9.04;70.28;93041.47;6101630;23;20152;-81
2023/11/03 11:26:51;;;;;;;1.33;1.20;;;;;;;9.29;69.79;93039.88;6101480;23;20217;-82
2023/11/03 11:29:28;;;;;;;0.83;0.70;;;;;;;8.86;70.98;93038.69;6102043;23;20190;-82
2023/11/03 11:32:01;;;;;;;1.63;0.83;;;;;;;9.14;70.31;93028.91;6102253;23;20143;-83
2023/11/03 11:34:27;;;;;;;2.00;0.83;;;;;;;9.57;69.04;93031.84;6104386;23;20179;-82
2023/11/03 11:36:54;;;;;;;5.07;0.80;;;;;;;9.09;70.41;93023.53;6103700;23;20155;-82